createdAt,value
2023-05-12T00:02:03.217Z,98484.65
2023-05-12T00:04:30.911Z,98485.65
2023-05-12T00:06:58.579Z,98487.74
2023-05-12T00:09:26.176Z,98487.35
2023-05-12T00:11:53.812Z,98493.28
2023-05-12T00:14:21.457Z,98494.84
2023-05-12T00:16:51.861Z,98493.40
2023-05-12T00:19:20.151Z,98499.50
2023-05-12T00:21:47.817Z,98498.41
2023-05-12T00:24:15.489Z,98498.55
2023-05-12T00:26:43.089Z,98500.09
2023-05-12T00:29:10.688Z,98501.26
2023-05-12T00:31:38.660Z,98500.52
2023-05-12T00:34:06.352Z,98504.16
2023-05-12T00:36:36.573Z,98503.59
2023-05-12T00:39:04.602Z,98508.40
2023-05-12T00:41:32.220Z,98510.44
2023-05-12T00:43:59.807Z,98506.87
2023-05-12T00:46:27.453Z,98508.67
2023-05-12T00:48:55.334Z,98507.35
2023-05-12T00:51:22.924Z,98505.14
2023-05-12T00:53:50.805Z,98506.96
2023-05-12T00:56:19.216Z,98504.55
2023-05-12T00:58:47.212Z,98507.75
2023-05-12T01:01:14.901Z,98513.73
2023-05-12T01:03:42.597Z,98513.42
2023-05-12T01:06:12.465Z,98512.77
2023-05-12T01:08:40.082Z,98514.23
2023-05-12T01:11:07.710Z,98515.34
2023-05-12T01:13:36.391Z,98515.59
2023-05-12T01:16:04.292Z,98514.59
2023-05-12T01:18:31.934Z,98516.58
2023-05-12T01:20:59.578Z,98519.62
2023-05-12T01:23:28.065Z,98520.57
2023-05-12T01:25:55.701Z,98522.02
2023-05-12T01:28:23.350Z,98519.64
2023-05-12T01:30:51.121Z,98523.01
2023-05-12T01:33:18.741Z,98522.02
2023-05-12T01:35:47.471Z,98526.40
2023-05-12T01:38:15.046Z,98522.07
2023-05-12T01:40:42.667Z,98528.20
2023-05-12T01:43:10.278Z,98527.56
2023-05-12T01:45:38.736Z,98527.41
2023-05-12T01:48:06.452Z,98527.80
2023-05-12T01:50:34.232Z,98530.95
2023-05-12T01:53:01.901Z,98530.98
2023-05-12T01:55:29.498Z,98527.34
2023-05-12T01:57:57.097Z,98528.94
2023-05-12T02:00:24.761Z,98531.77
2023-05-12T02:02:52.451Z,98527.27
2023-05-12T02:05:20.239Z,98523.99
2023-05-12T02:07:48.575Z,98529.76
2023-05-12T02:10:16.400Z,98527.18
2023-05-12T02:12:44.266Z,98530.00
2023-05-12T02:15:12.009Z,98531.27
2023-05-12T02:17:39.633Z,98528.53
2023-05-12T02:20:08.186Z,98532.06
2023-05-12T02:22:35.750Z,98526.02
2023-05-12T02:25:03.548Z,98526.44
2023-05-12T02:27:32.602Z,98527.52
2023-05-12T02:30:00.286Z,98526.37
2023-05-12T02:32:30.923Z,98525.89
2023-05-12T02:34:58.534Z,98529.59
2023-05-12T02:37:26.208Z,98531.91
2023-05-12T02:39:53.902Z,98535.81
2023-05-12T02:42:21.610Z,98534.66
2023-05-12T02:44:49.197Z,98534.91
2023-05-12T02:47:16.769Z,98535.34
2023-05-12T02:49:44.469Z,98532.33
2023-05-12T02:52:14.216Z,98530.34
2023-05-12T02:54:41.840Z,98529.09
2023-05-12T02:57:10.871Z,98529.05
2023-05-12T02:59:38.488Z,98530.02
2023-05-12T03:02:06.202Z,98527.05
2023-05-12T03:04:34.260Z,98526.91
2023-05-12T03:07:01.853Z,98522.34
2023-05-12T03:09:29.525Z,98526.85
2023-05-12T03:11:57.097Z,98523.01
2023-05-12T03:14:26.257Z,98526.27
2023-05-12T03:16:53.921Z,98525.15
2023-05-12T03:19:21.832Z,98522.45
2023-05-12T03:21:49.426Z,98522.14
2023-05-12T03:24:17.135Z,98516.11
2023-05-12T03:26:44.719Z,98519.64
2023-05-12T03:29:12.328Z,98520.69
2023-05-12T03:31:40.244Z,98516.70
2023-05-12T03:34:07.877Z,98523.52
2023-05-12T03:36:35.478Z,98525.82
2023-05-12T03:39:03.368Z,98528.97
2023-05-12T03:41:30.962Z,98525.69
2023-05-12T03:43:58.534Z,98531.69
2023-05-12T03:46:26.382Z,98530.35
2023-05-12T03:48:53.999Z,98529.20
2023-05-12T03:51:21.610Z,98537.10
2023-05-12T03:53:49.229Z,98535.44
2023-05-12T03:56:17.215Z,98537.09
2023-05-12T03:58:47.380Z,98536.11
2023-05-12T04:01:15.027Z,98540.05
2023-05-12T04:03:43.387Z,98535.42
2023-05-12T04:06:10.990Z,98539.68
2023-05-12T04:08:41.071Z,98536.30
2023-05-12T04:11:09.596Z,98541.95
2023-05-12T04:13:37.210Z,98540.48
2023-05-12T04:16:05.544Z,98540.91
2023-05-12T04:18:33.195Z,98543.27
2023-05-12T04:21:00.805Z,98544.94
2023-05-12T04:23:29.135Z,98541.57
2023-05-12T04:25:56.856Z,98547.23
2023-05-12T04:28:24.544Z,98551.86
2023-05-12T04:30:52.164Z,98554.23
2023-05-12T04:33:19.724Z,98549.11
2023-05-12T04:35:47.353Z,98552.36
2023-05-12T04:38:15.009Z,98552.15
2023-05-12T04:40:42.628Z,98554.03
2023-05-12T04:43:59.996Z,98551.55
2023-05-12T04:46:00.055Z,98553.41
2023-05-12T04:48:29.184Z,98550.41
2023-05-12T04:50:59.723Z,98550.17
2023-05-12T04:53:27.987Z,98553.81
2023-05-12T04:55:56.732Z,98557.96
2023-05-12T04:58:24.417Z,98554.98
2023-05-12T05:00:53.091Z,98551.45
2023-05-12T05:03:20.815Z,98555.43
2023-05-12T05:05:49.191Z,98556.63
2023-05-12T05:08:16.871Z,98555.35
2023-05-12T05:10:44.447Z,98554.45
2023-05-12T05:13:12.085Z,98554.40
2023-05-12T05:15:39.714Z,98557.70
2023-05-12T05:18:07.489Z,98556.95
2023-05-12T05:20:35.187Z,98552.70
2023-05-12T05:23:03.425Z,98555.11
2023-05-12T05:25:31.033Z,98555.57
2023-05-12T05:27:58.627Z,98553.44
2023-05-12T05:30:26.312Z,98555.83
2023-05-12T05:32:54.005Z,98552.80
2023-05-12T05:35:21.891Z,98553.61
2023-05-12T05:37:50.885Z,98555.67
2023-05-12T05:40:18.508Z,98559.30
2023-05-12T05:42:46.461Z,98560.34
2023-05-12T05:45:14.372Z,98561.50
2023-05-12T05:47:42.256Z,98561.98
2023-05-12T05:50:10.282Z,98558.79
2023-05-12T05:52:37.954Z,98562.77
2023-05-12T05:55:05.885Z,98562.90
2023-05-12T05:57:33.593Z,98567.74
2023-05-12T06:00:01.431Z,98570.31
2023-05-12T06:02:29.324Z,98572.35
2023-05-12T06:04:57.198Z,98570.73
2023-05-12T06:07:24.955Z,98571.33
2023-05-12T06:09:55.790Z,98567.91
2023-05-12T06:12:23.405Z,98567.46
2023-05-12T06:14:51.354Z,98568.95
2023-05-12T06:17:19.054Z,98566.58
2023-05-12T06:19:48.318Z,98564.90
2023-05-12T06:22:15.939Z,98571.64
2023-05-12T06:24:43.522Z,98569.61
2023-05-12T06:27:11.146Z,98572.11
2023-05-12T06:29:38.743Z,98570.96
2023-05-12T06:32:06.669Z,98573.13
2023-05-12T06:34:34.323Z,98572.83
2023-05-12T06:37:01.926Z,98568.50
2023-05-12T06:39:29.550Z,98565.73
2023-05-12T06:41:57.154Z,98574.36
2023-05-12T06:44:24.777Z,98570.38
2023-05-12T06:46:52.704Z,98572.34
2023-05-12T06:49:20.464Z,98570.60
2023-05-12T06:51:48.114Z,98572.04
2023-05-12T06:54:15.745Z,98571.21
2023-05-12T06:56:43.380Z,98567.02
2023-05-12T06:59:11.042Z,98566.33
2023-05-12T07:01:38.759Z,98568.79
2023-05-12T07:04:07.902Z,98567.55
2023-05-12T07:06:35.634Z,98568.26
2023-05-12T07:09:04.037Z,98564.38
2023-05-12T07:11:31.676Z,98563.84
2023-05-12T07:13:59.278Z,98565.23
2023-05-12T07:16:26.931Z,98564.33
2023-05-12T07:18:54.618Z,98563.06
2023-05-12T07:21:22.513Z,98567.80
2023-05-12T07:23:50.120Z,98573.40
2023-05-12T07:26:18.648Z,98569.33
2023-05-12T07:28:46.369Z,98566.47
2023-05-12T07:31:14.027Z,98564.85
2023-05-12T07:33:41.993Z,98563.73
2023-05-12T07:36:09.944Z,98565.79
2023-05-12T07:38:37.552Z,98568.89
2023-05-12T07:41:05.192Z,98568.10
2023-05-12T07:43:32.805Z,98570.30
2023-05-12T07:46:01.171Z,98567.92
2023-05-12T07:48:28.811Z,98566.80
2023-05-12T07:50:57.274Z,98570.75
2023-05-12T07:53:24.880Z,98570.64
2023-05-12T07:55:52.490Z,98568.44
2023-05-12T07:58:20.130Z,98567.98
2023-05-12T08:00:47.897Z,98567.71
2023-05-12T08:03:16.589Z,98567.98
2023-05-12T08:05:44.464Z,98569.65
2023-05-12T08:08:16.718Z,98571.84
2023-05-12T08:10:44.436Z,98573.11
2023-05-12T08:13:12.100Z,98573.34
2023-05-12T08:15:39.772Z,98570.02
2023-05-12T08:18:09.875Z,98569.58
2023-05-12T08:20:37.683Z,98570.52
2023-05-12T08:23:05.275Z,98574.27
2023-05-12T08:25:34.971Z,98571.34
2023-05-12T08:28:03.164Z,98570.52
2023-05-12T08:30:30.758Z,98574.14
2023-05-12T08:32:58.426Z,98563.27
2023-05-12T08:35:26.035Z,98567.39
2023-05-12T08:37:53.696Z,98566.92
2023-05-12T08:40:22.309Z,98565.91
2023-05-12T08:43:18.497Z,98569.46
2023-05-12T08:45:46.084Z,98565.05
2023-05-12T08:48:15.745Z,98566.98
2023-05-12T08:50:43.427Z,98564.48
2023-05-12T08:53:12.192Z,98569.21
2023-05-12T08:55:40.376Z,98566.00
2023-05-12T08:58:09.659Z,98570.57
2023-05-12T09:00:37.382Z,98569.13
2023-05-12T09:03:05.988Z,98569.48
2023-05-12T09:05:34.009Z,98566.28
2023-05-12T09:08:01.668Z,98569.82
2023-05-12T09:13:03.599Z,98568.73
2023-05-12T09:15:35.916Z,98566.22
2023-05-12T09:18:03.622Z,98567.44
2023-05-12T09:20:32.146Z,98572.00
2023-05-12T09:23:11.308Z,98572.47
2023-05-12T09:25:38.878Z,98568.67
2023-05-12T09:28:06.473Z,98567.45
2023-05-12T09:30:38.444Z,98565.56
2023-05-12T09:33:10.228Z,98564.73
2023-05-12T09:35:39.343Z,98564.05
2023-05-12T09:38:10.670Z,98566.45
2023-05-12T09:40:38.440Z,98557.52
2023-05-12T09:43:06.254Z,98558.31
2023-05-12T09:45:35.387Z,98567.02
2023-05-12T09:48:12.886Z,98563.59
2023-05-12T09:50:48.515Z,98562.46
2023-05-12T09:53:17.875Z,98558.19
2023-05-12T09:55:46.251Z,98562.79
2023-05-12T09:58:16.441Z,98555.96
2023-05-12T10:01:12.848Z,98565.85
2023-05-12T10:03:32.280Z,98562.42
2023-05-12T10:06:01.749Z,98559.67
2023-05-12T10:08:35.094Z,98552.13
2023-05-12T10:11:02.715Z,98554.89
2023-05-12T10:13:30.813Z,98556.12
2023-05-12T10:15:58.422Z,98549.39
2023-05-12T10:18:26.235Z,98554.52
2023-05-12T10:20:54.138Z,98550.53
2023-05-12T10:23:21.789Z,98551.04
2023-05-12T10:25:49.458Z,98539.50
2023-05-12T10:28:17.483Z,98548.20
2023-05-12T10:30:45.134Z,98548.77
2023-05-12T10:33:13.252Z,98547.16
2023-05-12T10:35:42.632Z,98553.55
2023-05-12T10:38:11.721Z,98548.02
2023-05-12T10:40:53.122Z,98547.84
2023-05-12T10:43:41.601Z,98548.91
2023-05-12T10:46:12.408Z,98550.41
2023-05-12T10:48:56.911Z,98548.06
2023-05-12T10:51:29.640Z,98544.34
2023-05-12T10:53:59.124Z,98546.84
2023-05-12T10:56:42.694Z,98544.88
2023-05-12T10:59:18.094Z,98544.61
2023-05-12T11:02:04.317Z,98537.35
2023-05-12T11:04:42.027Z,98542.34
2023-05-12T11:07:11.726Z,98539.81
2023-05-12T11:09:53.137Z,98544.30
2023-05-12T11:12:30.279Z,98550.02
2023-05-12T11:14:59.681Z,98548.78
2023-05-12T11:17:27.456Z,98548.42
2023-05-12T11:19:55.702Z,98546.29
2023-05-12T11:22:23.713Z,98546.86
2023-05-12T11:24:52.686Z,98547.75
2023-05-12T11:27:23.141Z,98552.92
2023-05-12T11:30:01.916Z,98557.36
2023-05-12T11:32:30.142Z,98554.80
2023-05-12T11:35:09.888Z,98552.78
2023-05-12T11:37:39.667Z,98558.23
2023-05-12T11:40:18.030Z,98557.27
2023-05-12T11:42:48.791Z,98560.96
2023-05-12T11:45:24.734Z,98556.27
2023-05-12T11:47:53.548Z,98568.73
2023-05-12T11:50:23.018Z,98564.60
2023-05-12T11:52:51.571Z,98562.74
2023-05-12T11:55:23.980Z,98556.81
2023-05-12T11:58:01.831Z,98558.23
2023-05-12T12:00:35.812Z,98552.77
2023-05-12T12:03:14.033Z,98551.85
2023-05-12T12:05:43.389Z,98562.14
2023-05-12T12:08:15.653Z,98553.25
2023-05-12T12:10:44.645Z,98558.35
2023-05-12T12:13:21.987Z,98556.39
2023-05-12T12:15:50.128Z,98548.00
2023-05-12T12:18:18.917Z,98551.40
2023-05-12T12:20:46.855Z,98547.47
2023-05-12T12:23:14.622Z,98546.78
2023-05-12T12:25:43.507Z,98548.77
2023-05-12T12:28:11.110Z,98547.43
2023-05-12T12:30:38.884Z,98545.91
2023-05-12T12:33:06.560Z,98554.11
2023-05-12T12:35:34.224Z,98549.95
2023-05-12T12:38:01.831Z,98558.11
2023-05-12T12:40:29.449Z,98558.69
2023-05-12T12:42:57.086Z,98563.14
2023-05-12T12:45:25.163Z,98569.36
2023-05-12T12:47:54.843Z,98568.41
2023-05-12T12:50:25.057Z,98569.25
2023-05-12T12:52:53.585Z,98565.54
2023-05-12T12:55:21.820Z,98571.95
2023-05-12T12:57:49.737Z,98568.38
2023-05-12T13:00:17.712Z,98568.42
2023-05-12T13:02:45.657Z,98564.77
2023-05-12T13:05:13.402Z,98570.09
2023-05-12T13:07:41.222Z,98575.87
2023-05-12T13:10:09.664Z,98575.61
2023-05-12T13:12:37.398Z,98572.31
2023-05-12T13:15:05.983Z,98568.62
2023-05-12T13:17:33.694Z,98561.15
2023-05-12T13:20:02.129Z,98559.40
2023-05-12T13:22:29.839Z,98566.61
2023-05-12T13:24:57.489Z,98557.84
2023-05-12T13:27:25.118Z,98564.94
2023-05-12T13:29:52.796Z,98560.08
2023-05-12T13:32:20.892Z,98562.23
2023-05-12T13:34:48.957Z,98557.35
2023-05-12T13:37:16.574Z,98555.50
2023-05-12T13:39:44.247Z,98553.95
2023-05-12T13:42:11.855Z,98543.36
2023-05-12T13:44:39.485Z,98550.45
2023-05-12T13:47:10.365Z,98552.91
2023-05-12T13:49:38.000Z,98544.80
2023-05-12T13:52:06.443Z,98548.33
2023-05-12T13:54:34.075Z,98551.46
2023-05-12T13:57:04.022Z,98552.59
2023-05-12T13:59:31.907Z,98548.02
2023-05-12T14:01:59.673Z,98543.18
2023-05-12T14:04:27.336Z,98542.24
2023-05-12T14:06:55.415Z,98545.54
2023-05-12T14:09:23.260Z,98543.77
2023-05-12T14:11:50.879Z,98542.70
2023-05-12T14:14:18.530Z,98542.94
2023-05-12T14:16:46.205Z,98542.11
2023-05-12T14:19:13.943Z,98544.66
2023-05-12T14:21:42.051Z,98545.35
2023-05-12T14:24:10.110Z,98544.48
2023-05-12T14:26:37.685Z,98549.25
2023-05-12T14:29:06.915Z,98553.68
2023-05-12T14:31:35.816Z,98556.36
2023-05-12T14:34:04.321Z,98553.25
2023-05-12T14:36:32.224Z,98558.33
2023-05-12T14:38:59.817Z,98564.23
2023-05-12T14:41:27.432Z,98562.95
2023-05-12T14:43:55.140Z,98559.23
2023-05-12T14:46:24.993Z,98560.75
2023-05-12T14:48:52.776Z,98546.95
2023-05-12T14:51:20.409Z,98549.66
2023-05-12T14:53:48.783Z,98545.92
2023-05-12T14:56:16.356Z,98551.42
2023-05-12T14:58:43.946Z,98553.81
2023-05-12T15:01:12.480Z,98552.08
2023-05-12T15:03:40.268Z,98546.74
2023-05-12T15:06:08.431Z,98546.51
2023-05-12T15:08:36.359Z,98549.98
2023-05-12T15:11:04.407Z,98550.09
2023-05-12T15:13:32.040Z,98553.55
2023-05-12T15:15:59.837Z,98553.79
2023-05-12T15:18:27.490Z,98560.35
2023-05-12T15:20:55.262Z,98561.53
2023-05-12T15:23:23.043Z,98558.75
2023-05-12T15:25:50.644Z,98558.94
2023-05-12T15:28:18.331Z,98559.34
2023-05-12T15:30:45.984Z,98562.71
2023-05-12T15:33:13.656Z,98559.65
2023-05-12T15:35:41.708Z,98561.74
2023-05-12T15:38:09.327Z,98564.70
2023-05-12T15:40:37.300Z,98563.33
2023-05-12T15:43:05.148Z,98561.96
2023-05-12T15:45:33.006Z,98569.55
2023-05-12T15:48:00.922Z,98571.11
2023-05-12T15:50:28.542Z,98568.78
2023-05-12T15:52:56.528Z,98563.34
2023-05-12T15:55:24.319Z,98565.34
2023-05-12T15:57:53.680Z,98566.19
2023-05-12T16:00:22.614Z,98567.76
2023-05-12T16:02:50.518Z,98565.17
2023-05-12T16:05:18.404Z,98568.88
2023-05-12T16:07:47.212Z,98564.66
2023-05-12T16:10:14.946Z,98557.53
2023-05-12T16:12:42.728Z,98563.02
2023-05-12T16:15:11.404Z,98560.77
2023-05-12T16:17:39.029Z,98568.84
2023-05-12T16:20:07.841Z,98563.80
2023-05-12T16:22:35.478Z,98565.06
2023-05-12T16:25:04.887Z,98564.34
2023-05-12T16:27:33.629Z,98567.45
2023-05-12T16:30:01.239Z,98570.75
2023-05-12T16:34:57.022Z,98576.61
2023-05-12T16:37:24.657Z,98576.73
2023-05-12T16:39:52.281Z,98578.94
2023-05-12T16:42:20.203Z,98581.33
2023-05-12T16:44:48.060Z,98587.78
2023-05-12T16:47:15.700Z,98590.91
2023-05-12T16:49:43.420Z,98591.52
2023-05-12T16:52:12.405Z,98587.61
2023-05-12T16:54:40.277Z,98593.73
2023-05-12T16:57:07.902Z,98593.36
2023-05-12T16:59:36.429Z,98594.59
2023-05-12T17:02:04.313Z,98597.58
2023-05-12T17:04:32.347Z,98601.36
2023-05-12T17:06:59.936Z,98605.45
2023-05-12T17:09:27.519Z,98610.66
2023-05-12T17:11:55.361Z,98608.13
2023-05-12T17:14:23.494Z,98609.40
2023-05-12T17:16:51.675Z,98611.14
2023-05-12T17:19:19.389Z,98609.65
2023-05-12T17:21:47.094Z,98615.38
2023-05-12T17:24:14.729Z,98608.95
2023-05-12T17:26:42.353Z,98619.63
2023-05-12T17:29:09.964Z,98618.58
2023-05-12T17:31:37.971Z,98622.44
2023-05-12T17:34:05.806Z,98624.16
2023-05-12T17:36:33.778Z,98631.91
2023-05-12T17:39:02.279Z,98634.88
2023-05-12T17:41:29.891Z,98635.06
2023-05-12T17:43:57.521Z,98630.27
2023-05-12T17:46:25.178Z,98631.48
2023-05-12T17:48:52.795Z,98630.16
2023-05-12T17:51:20.379Z,98633.60
2023-05-12T17:53:47.972Z,98638.20
2023-05-12T17:56:15.655Z,98639.66
2023-05-12T17:58:43.217Z,98638.16
2023-05-12T18:01:10.855Z,98641.39
2023-05-12T18:03:38.586Z,98648.65
2023-05-12T18:06:06.513Z,98646.00
2023-05-12T18:08:34.090Z,98647.20
2023-05-12T18:11:01.743Z,98646.13
2023-05-12T18:13:29.335Z,98648.59
2023-05-12T18:15:56.974Z,98648.77
2023-05-12T18:18:26.110Z,98648.77
2023-05-12T18:20:53.819Z,98654.46
2023-05-12T18:23:21.550Z,98663.10
2023-05-12T18:25:49.224Z,98659.02
2023-05-12T18:28:16.948Z,98659.50
2023-05-12T18:30:44.627Z,98666.67
2023-05-12T18:33:12.654Z,98670.52
2023-05-12T18:35:40.751Z,98670.22
2023-05-12T18:38:08.452Z,98676.83
2023-05-12T18:40:36.223Z,98676.58
2023-05-12T18:43:03.873Z,98682.45
2023-05-12T18:45:31.569Z,98683.77
2023-05-12T18:47:59.277Z,98679.63
2023-05-12T18:50:27.094Z,98683.06
2023-05-12T18:52:54.828Z,98681.91
2023-05-12T18:55:22.667Z,98686.92
2023-05-12T18:57:50.417Z,98688.40
2023-05-12T19:00:18.367Z,98687.25
2023-05-12T19:02:47.243Z,98693.13
2023-05-12T19:05:14.931Z,98692.27
2023-05-12T19:07:42.563Z,98693.18
2023-05-12T19:10:10.530Z,98694.98
2023-05-12T19:12:38.381Z,98694.66
2023-05-12T19:15:06.577Z,98693.46
2023-05-12T19:17:34.372Z,98692.09
2023-05-12T19:20:02.022Z,98697.05
2023-05-12T19:22:29.614Z,98697.25
2023-05-12T19:24:57.263Z,98695.34
2023-05-12T19:27:27.068Z,98700.99
2023-05-12T19:29:55.115Z,98698.73
2023-05-12T19:32:23.223Z,98702.61
2023-05-12T19:34:51.430Z,98708.61
2023-05-12T19:37:19.477Z,98710.90
2023-05-12T19:39:47.445Z,98713.20
2023-05-12T19:42:15.088Z,98712.66
2023-05-12T19:44:42.765Z,98713.17
2023-05-12T19:47:11.343Z,98714.06
2023-05-12T19:49:38.979Z,98715.30
2023-05-12T19:52:06.926Z,98717.92
2023-05-12T19:54:34.559Z,98721.44
2023-05-12T19:57:02.172Z,98715.63
2023-05-12T19:59:29.871Z,98715.81
2023-05-12T20:01:57.481Z,98717.04
2023-05-12T20:04:25.912Z,98717.20
2023-05-12T20:06:54.551Z,98712.80
2023-05-12T20:09:23.234Z,98713.33
2023-05-12T20:11:51.059Z,98716.98
2023-05-12T20:14:18.685Z,98719.61
2023-05-12T20:16:46.353Z,98723.46
2023-05-12T20:19:14.164Z,98718.17
2023-05-12T20:21:41.999Z,98717.27
2023-05-12T20:24:09.575Z,98715.87
2023-05-12T20:26:37.644Z,98717.44
2023-05-12T20:29:05.289Z,98722.15
2023-05-12T20:31:32.986Z,98718.11
2023-05-12T20:34:00.609Z,98721.07
2023-05-12T20:36:28.239Z,98716.51
2023-05-12T20:38:56.188Z,98711.90
2023-05-12T20:41:23.812Z,98710.11
2023-05-12T20:43:51.435Z,98709.39
2023-05-12T20:46:19.676Z,98705.33
2023-05-12T20:48:47.422Z,98704.44
2023-05-12T20:51:15.089Z,98707.23
2023-05-12T20:53:42.814Z,98708.78
2023-05-12T20:56:10.730Z,98708.58
2023-05-12T20:58:38.509Z,98706.27
2023-05-12T21:01:06.339Z,98708.52
2023-05-12T21:03:34.266Z,98713.23
2023-05-12T21:06:02.052Z,98715.34
2023-05-12T21:08:29.624Z,98716.88
2023-05-12T21:10:58.905Z,98717.41
2023-05-12T21:13:26.967Z,98717.19
2023-05-12T21:15:54.583Z,98718.25
2023-05-12T21:18:23.257Z,98718.38
2023-05-12T21:20:51.101Z,98719.43
2023-05-12T21:23:19.056Z,98720.98
2023-05-12T21:25:46.746Z,98720.27
2023-05-12T21:28:15.477Z,98721.65
2023-05-12T21:30:43.143Z,98716.55
2023-05-12T21:33:10.786Z,98717.77
2023-05-12T21:35:38.407Z,98721.08
2023-05-12T21:38:08.449Z,98718.06
2023-05-12T21:40:37.064Z,98719.10
2023-05-12T21:43:04.714Z,98716.27
2023-05-12T21:45:32.348Z,98713.45
2023-05-12T21:48:00.050Z,98714.64
2023-05-12T21:50:27.738Z,98716.54
2023-05-12T21:52:55.327Z,98718.08
2023-05-12T21:55:22.987Z,98719.10
2023-05-12T21:57:50.579Z,98717.48
2023-05-12T22:00:20.326Z,98715.52
2023-05-12T22:02:48.203Z,98718.63
2023-05-12T22:05:15.918Z,98719.11
2023-05-12T22:07:43.992Z,98720.66
2023-05-12T22:10:11.961Z,98719.05
2023-05-12T22:12:40.321Z,98718.64
2023-05-12T22:15:08.223Z,98718.75
2023-05-12T22:17:35.877Z,98720.83
2023-05-12T22:20:04.192Z,98721.48
2023-05-12T22:22:31.768Z,98721.45
2023-05-12T22:24:59.368Z,98722.10
2023-05-12T22:27:26.944Z,98724.33
2023-05-12T22:29:55.729Z,98725.32
2023-05-12T22:32:23.652Z,98730.87
2023-05-12T22:34:54.781Z,98726.98
2023-05-12T22:37:22.404Z,98733.59
2023-05-12T22:39:50.019Z,98731.44
2023-05-12T22:42:17.606Z,98734.90
2023-05-12T22:44:45.180Z,98737.14
2023-05-12T22:47:12.876Z,98737.60
2023-05-12T22:49:40.714Z,98732.30
2023-05-12T22:52:08.569Z,98733.85
2023-05-12T22:54:36.214Z,98734.33
2023-05-12T22:57:03.965Z,98735.00
2023-05-12T22:59:31.541Z,98734.79
2023-05-12T23:01:59.133Z,98742.11
2023-05-12T23:04:27.013Z,98742.77
2023-05-12T23:06:54.749Z,98744.98
2023-05-12T23:09:22.425Z,98740.20
2023-05-12T23:11:50.038Z,98744.35
2023-05-12T23:14:17.687Z,98748.32
2023-05-12T23:16:45.326Z,98744.92
2023-05-12T23:19:12.961Z,98748.38
2023-05-12T23:21:40.567Z,98753.55
2023-05-12T23:24:09.007Z,98754.35
2023-05-12T23:26:37.146Z,98755.30
2023-05-12T23:29:04.741Z,98771.77
2023-05-12T23:31:32.394Z,98769.32
2023-05-12T23:33:59.991Z,98767.22
2023-05-12T23:36:27.587Z,98769.82
2023-05-12T23:38:55.352Z,98768.19
2023-05-12T23:41:23.011Z,98765.90
2023-05-12T23:43:50.602Z,98763.65
2023-05-12T23:46:18.219Z,98770.48
2023-05-12T23:48:45.890Z,98770.68
2023-05-12T23:51:13.450Z,98759.94
2023-05-12T23:53:41.241Z,98766.83
2023-05-12T23:56:08.877Z,98771.61
2023-05-12T23:58:36.477Z,98769.06
